createdAt,value
2022-09-13T00:01:47.130Z,21.60
2022-09-13T00:06:48.964Z,21.50
2022-09-13T00:11:51.712Z,21.90
2022-09-13T00:16:53.417Z,21.90
2022-09-13T00:21:55.111Z,22.20
2022-09-13T00:26:56.767Z,21.90
2022-09-13T00:31:58.489Z,21.90
2022-09-13T00:37:00.212Z,21.70
2022-09-13T00:42:02.809Z,21.70
2022-09-13T00:47:04.706Z,21.70
2022-09-13T00:52:13.767Z,21.60
2022-09-13T00:57:19.801Z,21.60
2022-09-13T01:02:21.807Z,22.00
2022-09-13T01:07:23.659Z,22.00
2022-09-13T01:12:45.200Z,21.40
2022-09-13T01:17:47.921Z,21.60
2022-09-13T01:23:01.330Z,21.40
2022-09-13T01:28:17.236Z,21.30
2022-09-13T01:34:13.903Z,21.50
2022-09-13T01:39:22.290Z,21.40
2022-09-13T01:44:39.028Z,21.40
2022-09-13T01:50:23.560Z,21.50
2022-09-13T01:55:40.298Z,21.30
2022-09-13T02:01:04.748Z,21.00
2022-09-13T02:06:11.869Z,20.60
2022-09-13T02:11:15.696Z,20.50
2022-09-13T02:16:40.965Z,20.80
2022-09-13T02:21:47.924Z,20.50
2022-09-13T02:26:51.957Z,20.50
2022-09-13T02:32:05.654Z,20.30
2022-09-13T02:37:09.624Z,20.50
2022-09-13T02:42:36.370Z,21.00
2022-09-13T02:47:41.079Z,20.90
2022-09-13T02:53:07.649Z,20.50
2022-09-13T02:58:45.536Z,20.70
2022-09-13T03:03:47.575Z,20.60
2022-09-13T03:08:49.354Z,21.10
2022-09-13T03:14:07.706Z,20.90
2022-09-13T03:19:15.652Z,20.90
2022-09-13T03:24:20.306Z,21.10
2022-09-13T03:29:21.947Z,21.40
2022-09-13T03:34:34.818Z,21.10
2022-09-13T03:39:59.896Z,21.20
2022-09-13T03:45:03.376Z,21.10
2022-09-13T03:50:08.540Z,20.90
2022-09-13T03:55:10.248Z,21.20
2022-09-13T04:00:14.213Z,20.80
2022-09-13T04:05:15.913Z,21.00
2022-09-13T04:10:17.645Z,20.70
2022-09-13T04:15:19.331Z,21.00
2022-09-13T04:20:21.422Z,21.30
2022-09-13T04:25:24.200Z,21.10
2022-09-13T04:30:28.459Z,20.80
2022-09-13T04:35:32.281Z,20.30
2022-09-13T04:40:36.077Z,20.50
2022-09-13T04:45:39.250Z,20.10
2022-09-13T04:50:41.966Z,20.10
2022-09-13T04:55:45.037Z,20.20
2022-09-13T05:00:49.055Z,20.20
2022-09-13T05:05:50.996Z,19.70
2022-09-13T05:10:53.677Z,19.50
2022-09-13T05:16:05.394Z,20.00
2022-09-13T05:21:08.413Z,19.70
2022-09-13T05:26:11.697Z,19.50
2022-09-13T05:31:25.281Z,19.70
2022-09-13T05:36:28.857Z,20.50
2022-09-13T05:41:32.863Z,19.90
2022-09-13T05:46:35.661Z,20.00
2022-09-13T05:51:40.291Z,20.30
2022-09-13T05:56:45.193Z,20.20
2022-09-13T06:01:48.027Z,20.10
2022-09-13T06:06:52.010Z,20.30
2022-09-13T06:11:54.828Z,20.70
2022-09-13T06:16:57.831Z,20.50
2022-09-13T06:22:00.800Z,20.90
2022-09-13T06:27:03.614Z,21.10
2022-09-13T06:32:06.753Z,21.00
2022-09-13T06:37:09.524Z,21.30
2022-09-13T06:42:12.427Z,21.90
2022-09-13T06:47:15.102Z,22.00
2022-09-13T06:52:17.972Z,22.00
2022-09-13T06:57:20.897Z,22.50
2022-09-13T07:02:23.878Z,22.80
2022-09-13T07:07:27.168Z,22.90
2022-09-13T07:12:30.574Z,23.00
2022-09-13T07:17:33.904Z,23.10
2022-09-13T07:22:36.505Z,23.60
2022-09-13T07:27:38.496Z,23.20
2022-09-13T07:32:40.376Z,23.60
2022-09-13T07:37:42.420Z,23.80
2022-09-13T07:42:44.126Z,23.40
2022-09-13T07:47:46.964Z,23.60
2022-09-13T07:52:48.679Z,23.70
2022-09-13T07:57:50.400Z,24.50
2022-09-13T08:02:52.110Z,25.30
2022-09-13T08:07:53.773Z,24.90
2022-09-13T08:12:55.690Z,24.80
2022-09-13T08:17:57.340Z,25.10
2022-09-13T08:22:59.006Z,25.00
2022-09-13T08:28:01.844Z,25.40
2022-09-13T08:33:06.907Z,25.80
2022-09-13T08:38:08.733Z,25.80
2022-09-13T08:43:37.083Z,25.60
2022-09-13T08:48:44.980Z,25.60
2022-09-13T08:53:49.091Z,25.70
2022-09-13T08:59:16.507Z,26.00
2022-09-13T09:04:27.048Z,26.10
2022-09-13T09:09:35.503Z,26.00
2022-09-13T09:14:42.472Z,26.30
2022-09-13T09:19:48.757Z,26.70
2022-09-13T09:24:58.068Z,27.50
2022-09-13T09:30:00.769Z,27.60
2022-09-13T09:35:11.633Z,27.20
2022-09-13T09:40:14.466Z,26.90
2022-09-13T09:45:32.155Z,27.00
2022-09-13T09:50:38.694Z,27.90
2022-09-13T09:55:51.491Z,28.20
2022-09-13T10:00:57.849Z,28.40
2022-09-13T10:06:12.638Z,27.90
2022-09-13T10:11:15.072Z,28.30
2022-09-13T10:16:31.452Z,28.50
2022-09-13T10:21:33.164Z,28.70
2022-09-13T10:26:35.015Z,28.40
2022-09-13T10:31:42.739Z,28.90
2022-09-13T10:36:54.385Z,29.10
2022-09-13T10:42:06.407Z,28.90
2022-09-13T10:47:18.635Z,28.90
2022-09-13T10:52:35.279Z,28.30
2022-09-13T10:57:37.552Z,28.70
2022-09-13T11:02:44.855Z,29.20
2022-09-13T11:07:55.528Z,29.50
2022-09-13T11:13:24.629Z,29.50
2022-09-13T11:18:48.082Z,29.50
2022-09-13T11:24:45.413Z,29.00
2022-09-13T11:30:14.417Z,29.30
2022-09-13T11:35:34.465Z,29.70
2022-09-13T11:40:48.940Z,29.70
2022-09-13T11:46:05.315Z,29.70
2022-09-13T11:51:27.167Z,30.60
2022-09-13T11:56:37.498Z,30.00
2022-09-13T12:01:44.715Z,30.30
2022-09-13T12:06:58.235Z,30.50
2022-09-13T12:12:10.004Z,30.10
2022-09-13T12:17:46.817Z,31.20
2022-09-13T12:22:51.064Z,30.20
2022-09-13T12:28:06.069Z,30.90
2022-09-13T12:33:08.306Z,31.30
2022-09-13T12:38:21.816Z,30.50
2022-09-13T12:43:47.933Z,30.30
2022-09-13T12:49:20.151Z,30.30
2022-09-13T12:55:19.610Z,30.50
2022-09-13T13:01:04.670Z,30.40
2022-09-13T13:06:35.412Z,30.10
2022-09-13T13:11:48.672Z,30.90
2022-09-13T13:16:50.398Z,30.80
2022-09-13T13:21:52.267Z,30.70
2022-09-13T13:26:58.429Z,29.60
2022-09-13T13:32:00.092Z,29.90
2022-09-13T13:37:07.996Z,30.50
2022-09-13T13:42:29.947Z,30.20
2022-09-13T13:47:31.578Z,31.00
2022-09-13T13:52:50.887Z,30.90
2022-09-13T13:58:10.292Z,31.00
2022-09-13T14:03:22.263Z,30.80
2022-09-13T14:08:29.786Z,30.40
2022-09-13T14:13:43.394Z,29.30
2022-09-13T14:18:54.272Z,28.80
2022-09-13T14:24:28.614Z,28.80
2022-09-13T14:29:30.683Z,28.90
2022-09-13T14:34:35.825Z,29.00
2022-09-13T14:39:37.542Z,29.40
2022-09-13T14:44:44.428Z,29.60
2022-09-13T14:50:08.772Z,29.30
2022-09-13T14:55:18.051Z,28.80
2022-09-13T15:00:22.755Z,29.20
2022-09-13T15:05:27.308Z,28.90
2022-09-13T15:10:33.270Z,28.80
2022-09-13T15:15:39.646Z,28.70
2022-09-13T15:20:46.327Z,28.70
2022-09-13T15:25:51.853Z,28.60
2022-09-13T15:30:55.526Z,28.50
2022-09-13T15:36:19.631Z,28.50
2022-09-13T15:41:21.505Z,28.40
2022-09-13T15:46:23.275Z,28.50
2022-09-13T15:51:25.620Z,28.30
2022-09-13T15:56:34.925Z,28.20
2022-09-13T16:01:36.673Z,28.50
2022-09-13T16:06:39.184Z,28.30
2022-09-13T16:11:40.840Z,28.40
2022-09-13T16:16:43.180Z,28.30
2022-09-13T16:21:45.418Z,28.20
2022-09-13T16:26:47.079Z,28.30
2022-09-13T16:31:48.826Z,28.20
2022-09-13T16:36:50.674Z,28.20
2022-09-13T16:41:52.389Z,28.10
2022-09-13T16:46:54.184Z,27.90
2022-09-13T16:51:56.002Z,27.80
2022-09-13T16:56:58.163Z,27.60
2022-09-13T17:01:59.923Z,27.60
2022-09-13T17:07:01.848Z,28.20
2022-09-13T17:12:03.887Z,27.60
2022-09-13T17:17:05.629Z,27.50
2022-09-13T17:22:07.403Z,27.50
2022-09-13T17:27:09.158Z,27.10
2022-09-13T17:32:10.806Z,27.10
2022-09-13T17:37:12.789Z,27.10
2022-09-13T17:42:14.656Z,26.80
2022-09-13T17:47:16.356Z,26.70
2022-09-13T17:52:18.116Z,26.50
2022-09-13T17:57:20.024Z,26.30
2022-09-13T18:02:22.297Z,26.20
2022-09-13T18:07:24.041Z,26.00
2022-09-13T18:12:25.693Z,25.90
2022-09-13T18:17:27.407Z,25.80
2022-09-13T18:22:29.100Z,25.80
2022-09-13T18:27:31.103Z,26.00
2022-09-13T18:32:32.959Z,25.70
2022-09-13T18:37:34.687Z,25.50
2022-09-13T18:42:36.370Z,25.50
2022-09-13T18:47:38.045Z,25.40
2022-09-13T18:52:39.846Z,25.40
2022-09-13T18:57:41.537Z,25.30
2022-09-13T19:03:02.078Z,25.10
2022-09-13T19:08:09.364Z,25.20
2022-09-13T19:13:11.036Z,25.00
2022-09-13T19:18:12.725Z,25.00
2022-09-13T19:23:14.436Z,24.90
2022-09-13T19:28:16.241Z,24.80
2022-09-13T19:33:18.018Z,24.70
2022-09-13T19:38:19.733Z,24.70
2022-09-13T19:43:21.392Z,24.50
2022-09-13T19:48:38.129Z,24.60
2022-09-13T19:53:56.549Z,24.30
2022-09-13T19:59:05.938Z,24.70
2022-09-13T20:04:19.850Z,24.60
2022-09-13T20:09:21.664Z,24.50
2022-09-13T20:14:23.325Z,24.50
2022-09-13T20:19:44.876Z,24.50
2022-09-13T20:24:46.812Z,24.40
2022-09-13T20:29:48.515Z,24.70
2022-09-13T20:34:50.219Z,24.60
2022-09-13T20:39:51.968Z,24.70
2022-09-13T20:44:53.648Z,24.70
2022-09-13T20:49:55.340Z,24.70
2022-09-13T20:54:57.396Z,24.70
2022-09-13T20:59:59.088Z,24.60
2022-09-13T21:05:00.915Z,24.70
2022-09-13T21:10:02.638Z,24.50
2022-09-13T21:15:04.896Z,24.30
2022-09-13T21:20:06.806Z,24.70
2022-09-13T21:25:08.997Z,24.80
2022-09-13T21:30:10.964Z,24.50
2022-09-13T21:35:12.706Z,24.50
2022-09-13T21:40:14.622Z,24.20
2022-09-13T21:45:16.464Z,23.70
2022-09-13T21:50:18.128Z,23.90
2022-09-13T21:55:19.796Z,24.20
2022-09-13T22:00:21.500Z,24.00
2022-09-13T22:05:23.202Z,24.10
2022-09-13T22:10:24.982Z,23.90
2022-09-13T22:15:26.728Z,23.70
2022-09-13T22:20:28.376Z,23.90
2022-09-13T22:25:30.080Z,24.30
2022-09-13T22:30:34.020Z,24.50
2022-09-13T22:35:35.729Z,24.10
2022-09-13T22:40:37.396Z,24.30
2022-09-13T22:45:39.075Z,24.20
2022-09-13T22:50:40.744Z,24.10
2022-09-13T22:55:42.426Z,24.10
2022-09-13T23:00:45.319Z,24.10
2022-09-13T23:05:50.694Z,24.20
2022-09-13T23:10:52.393Z,24.40
2022-09-13T23:15:54.079Z,24.00
2022-09-13T23:20:56.328Z,24.00
2022-09-13T23:26:10.179Z,24.30
2022-09-13T23:31:14.802Z,23.60
2022-09-13T23:36:20.035Z,23.80
2022-09-13T23:41:22.862Z,23.90
2022-09-13T23:46:24.560Z,23.80
2022-09-13T23:51:26.907Z,23.70
2022-09-13T23:56:30.568Z,23.80
